sensor_id;sensor_type;location;lat;lon;timestamp;P1;durP1;ratioP1;P2;durP2;ratioP2
5273;SDS011;56254;50.956;7.010;2022-08-07T00:01:18;2.40;;;2.10;;
5273;SDS011;56254;50.956;7.010;2022-08-07T00:03:45;2.60;;;2.27;;
5273;SDS011;56254;50.956;7.010;2022-08-07T00:06:11;4.27;;;2.33;;
5273;SDS011;56254;50.956;7.010;2022-08-07T00:08:37;7.03;;;2.43;;
5273;SDS011;56254;50.956;7.010;2022-08-07T00:11:03;7.00;;;2.90;;
5273;SDS011;56254;50.956;7.010;2022-08-07T00:13:30;4.70;;;2.70;;
5273;SDS011;56254;50.956;7.010;2022-08-07T00:15:57;5.63;;;2.47;;
5273;SDS011;56254;50.956;7.010;2022-08-07T00:18:24;5.43;;;2.43;;
5273;SDS011;56254;50.956;7.010;2022-08-07T00:20:55;4.00;;;2.30;;
5273;SDS011;56254;50.956;7.010;2022-08-07T00:23:23;5.50;;;1.93;;
5273;SDS011;56254;50.956;7.010;2022-08-07T00:25:49;7.57;;;2.10;;
5273;SDS011;56254;50.956;7.010;2022-08-07T00:28:22;7.30;;;1.90;;
5273;SDS011;56254;50.956;7.010;2022-08-07T00:30:48;3.10;;;1.90;;
5273;SDS011;56254;50.956;7.010;2022-08-07T00:33:14;2.00;;;1.90;;
5273;SDS011;56254;50.956;7.010;2022-08-07T00:35:40;4.80;;;2.33;;
5273;SDS011;56254;50.956;7.010;2022-08-07T00:38:06;1.87;;;1.73;;
5273;SDS011;56254;50.956;7.010;2022-08-07T00:40:32;5.37;;;1.60;;
5273;SDS011;56254;50.956;7.010;2022-08-07T00:42:58;2.60;;;2.40;;
5273;SDS011;56254;50.956;7.010;2022-08-07T00:45:23;2.23;;;2.13;;
5273;SDS011;56254;50.956;7.010;2022-08-07T00:47:49;4.43;;;2.20;;
5273;SDS011;56254;50.956;7.010;2022-08-07T00:50:15;2.00;;;1.83;;
5273;SDS011;56254;50.956;7.010;2022-08-07T00:52:42;4.57;;;2.23;;
5273;SDS011;56254;50.956;7.010;2022-08-07T00:55:08;5.23;;;2.20;;
5273;SDS011;56254;50.956;7.010;2022-08-07T00:57:34;4.30;;;1.73;;
5273;SDS011;56254;50.956;7.010;2022-08-07T01:00:01;3.20;;;1.90;;
5273;SDS011;56254;50.956;7.010;2022-08-07T01:02:31;4.43;;;2.37;;
5273;SDS011;56254;50.956;7.010;2022-08-07T01:04:57;2.87;;;1.77;;
5273;SDS011;56254;50.956;7.010;2022-08-07T01:07:24;4.00;;;1.93;;
5273;SDS011;56254;50.956;7.010;2022-08-07T01:09:50;5.40;;;2.43;;
5273;SDS011;56254;50.956;7.010;2022-08-07T01:12:16;5.63;;;2.20;;
5273;SDS011;56254;50.956;7.010;2022-08-07T01:14:43;6.77;;;1.83;;
5273;SDS011;56254;50.956;7.010;2022-08-07T01:17:09;4.03;;;2.30;;
5273;SDS011;56254;50.956;7.010;2022-08-07T01:19:36;4.33;;;1.70;;
5273;SDS011;56254;50.956;7.010;2022-08-07T01:22:02;4.67;;;1.93;;
5273;SDS011;56254;50.956;7.010;2022-08-07T01:24:28;9.90;;;1.97;;
5273;SDS011;56254;50.956;7.010;2022-08-07T01:26:54;2.77;;;1.80;;
5273;SDS011;56254;50.956;7.010;2022-08-07T01:29:21;12.50;;;2.17;;
5273;SDS011;56254;50.956;7.010;2022-08-07T01:31:48;6.60;;;1.90;;
5273;SDS011;56254;50.956;7.010;2022-08-07T01:34:15;3.97;;;2.60;;
5273;SDS011;56254;50.956;7.010;2022-08-07T01:36:44;4.17;;;2.43;;
5273;SDS011;56254;50.956;7.010;2022-08-07T01:39:12;10.83;;;2.40;;
5273;SDS011;56254;50.956;7.010;2022-08-07T01:41:38;8.33;;;2.63;;
5273;SDS011;56254;50.956;7.010;2022-08-07T01:44:07;12.27;;;1.80;;
5273;SDS011;56254;50.956;7.010;2022-08-07T01:46:34;7.10;;;2.37;;
5273;SDS011;56254;50.956;7.010;2022-08-07T01:49:00;3.63;;;2.50;;
5273;SDS011;56254;50.956;7.010;2022-08-07T01:51:26;5.27;;;2.53;;
5273;SDS011;56254;50.956;7.010;2022-08-07T01:53:58;4.90;;;2.40;;
5273;SDS011;56254;50.956;7.010;2022-08-07T01:56:47;8.20;;;2.60;;
5273;SDS011;56254;50.956;7.010;2022-08-07T01:59:24;2.83;;;2.50;;
5273;SDS011;56254;50.956;7.010;2022-08-07T02:02:07;2.70;;;2.40;;
5273;SDS011;56254;50.956;7.010;2022-08-07T02:04:42;5.20;;;2.60;;
5273;SDS011;56254;50.956;7.010;2022-08-07T02:07:13;5.30;;;2.40;;
5273;SDS011;56254;50.956;7.010;2022-08-07T02:09:44;4.07;;;2.20;;
5273;SDS011;56254;50.956;7.010;2022-08-07T02:12:11;1.97;;;1.80;;
5273;SDS011;56254;50.956;7.010;2022-08-07T02:14:43;3.63;;;2.30;;
5273;SDS011;56254;50.956;7.010;2022-08-07T02:17:13;4.50;;;2.03;;
5273;SDS011;56254;50.956;7.010;2022-08-07T02:19:40;7.70;;;2.40;;
5273;SDS011;56254;50.956;7.010;2022-08-07T02:22:10;2.90;;;2.07;;
5273;SDS011;56254;50.956;7.010;2022-08-07T02:24:37;2.77;;;2.40;;
5273;SDS011;56254;50.956;7.010;2022-08-07T02:27:05;5.03;;;2.83;;
5273;SDS011;56254;50.956;7.010;2022-08-07T02:29:32;3.33;;;2.20;;
5273;SDS011;56254;50.956;7.010;2022-08-07T02:31:59;2.37;;;2.10;;
5273;SDS011;56254;50.956;7.010;2022-08-07T02:34:27;3.27;;;2.00;;
5273;SDS011;56254;50.956;7.010;2022-08-07T02:36:53;3.50;;;2.33;;
5273;SDS011;56254;50.956;7.010;2022-08-07T02:39:21;7.10;;;2.63;;
5273;SDS011;56254;50.956;7.010;2022-08-07T02:41:49;5.50;;;2.27;;
5273;SDS011;56254;50.956;7.010;2022-08-07T02:44:16;6.43;;;2.27;;
5273;SDS011;56254;50.956;7.010;2022-08-07T02:46:42;3.13;;;1.93;;
5273;SDS011;56254;50.956;7.010;2022-08-07T02:49:12;11.83;;;1.87;;
5273;SDS011;56254;50.956;7.010;2022-08-07T02:51:38;3.07;;;2.40;;
5273;SDS011;56254;50.956;7.010;2022-08-07T02:54:05;2.70;;;1.93;;
5273;SDS011;56254;50.956;7.010;2022-08-07T02:56:34;7.80;;;2.23;;
5273;SDS011;56254;50.956;7.010;2022-08-07T02:59:04;6.10;;;2.73;;
5273;SDS011;56254;50.956;7.010;2022-08-07T03:01:33;5.13;;;2.03;;
5273;SDS011;56254;50.956;7.010;2022-08-07T03:04:04;4.17;;;2.57;;
5273;SDS011;56254;50.956;7.010;2022-08-07T03:06:31;10.93;;;2.43;;
5273;SDS011;56254;50.956;7.010;2022-08-07T03:08:58;5.53;;;2.80;;
5273;SDS011;56254;50.956;7.010;2022-08-07T03:11:25;5.37;;;2.50;;
5273;SDS011;56254;50.956;7.010;2022-08-07T03:13:52;6.57;;;2.60;;
5273;SDS011;56254;50.956;7.010;2022-08-07T03:16:18;2.93;;;2.33;;
5273;SDS011;56254;50.956;7.010;2022-08-07T03:18:45;2.83;;;2.30;;
5273;SDS011;56254;50.956;7.010;2022-08-07T03:21:11;3.23;;;2.07;;
5273;SDS011;56254;50.956;7.010;2022-08-07T03:23:37;8.03;;;2.03;;
5273;SDS011;56254;50.956;7.010;2022-08-07T03:26:12;2.77;;;2.33;;
5273;SDS011;56254;50.956;7.010;2022-08-07T03:28:42;2.73;;;2.23;;
5273;SDS011;56254;50.956;7.010;2022-08-07T03:31:10;3.90;;;2.27;;
5273;SDS011;56254;50.956;7.010;2022-08-07T03:34:01;3.30;;;2.20;;
5273;SDS011;56254;50.956;7.010;2022-08-07T03:36:28;3.40;;;2.43;;
5273;SDS011;56254;50.956;7.010;2022-08-07T03:38:59;6.70;;;2.20;;
5273;SDS011;56254;50.956;7.010;2022-08-07T03:41:31;2.83;;;2.07;;
5273;SDS011;56254;50.956;7.010;2022-08-07T03:43:58;2.00;;;1.70;;
5273;SDS011;56254;50.956;7.010;2022-08-07T03:46:25;2.43;;;2.23;;
5273;SDS011;56254;50.956;7.010;2022-08-07T03:48:52;9.00;;;2.53;;
5273;SDS011;56254;50.956;7.010;2022-08-07T03:51:19;3.70;;;2.00;;
5273;SDS011;56254;50.956;7.010;2022-08-07T03:53:46;6.07;;;2.50;;
5273;SDS011;56254;50.956;7.010;2022-08-07T03:56:13;4.70;;;2.07;;
5273;SDS011;56254;50.956;7.010;2022-08-07T03:58:44;5.40;;;2.20;;
5273;SDS011;56254;50.956;7.010;2022-08-07T04:01:10;2.80;;;2.20;;
5273;SDS011;56254;50.956;7.010;2022-08-07T04:03:38;2.43;;;2.20;;
5273;SDS011;56254;50.956;7.010;2022-08-07T04:06:08;5.50;;;2.27;;
5273;SDS011;56254;50.956;7.010;2022-08-07T04:08:35;4.50;;;2.00;;
5273;SDS011;56254;50.956;7.010;2022-08-07T04:11:03;2.50;;;2.00;;
5273;SDS011;56254;50.956;7.010;2022-08-07T04:13:31;2.00;;;1.90;;
5273;SDS011;56254;50.956;7.010;2022-08-07T04:15:58;3.77;;;2.07;;
5273;SDS011;56254;50.956;7.010;2022-08-07T04:18:24;3.37;;;2.13;;
5273;SDS011;56254;50.956;7.010;2022-08-07T04:20:50;11.73;;;2.13;;
5273;SDS011;56254;50.956;7.010;2022-08-07T04:23:16;4.87;;;1.90;;
5273;SDS011;56254;50.956;7.010;2022-08-07T04:25:42;2.30;;;2.10;;
5273;SDS011;56254;50.956;7.010;2022-08-07T04:28:09;2.53;;;1.87;;
5273;SDS011;56254;50.956;7.010;2022-08-07T04:30:36;5.57;;;1.60;;
5273;SDS011;56254;50.956;7.010;2022-08-07T04:33:05;2.03;;;1.90;;
5273;SDS011;56254;50.956;7.010;2022-08-07T04:35:32;2.30;;;2.07;;
5273;SDS011;56254;50.956;7.010;2022-08-07T04:38:07;1.97;;;1.73;;
5273;SDS011;56254;50.956;7.010;2022-08-07T04:40:34;2.17;;;2.03;;
5273;SDS011;56254;50.956;7.010;2022-08-07T04:43:05;1.90;;;1.80;;
5273;SDS011;56254;50.956;7.010;2022-08-07T04:45:54;5.07;;;1.70;;
5273;SDS011;56254;50.956;7.010;2022-08-07T04:48:30;4.40;;;1.77;;
5273;SDS011;56254;50.956;7.010;2022-08-07T04:51:24;3.73;;;2.50;;
5273;SDS011;56254;50.956;7.010;2022-08-07T04:54:23;6.00;;;2.30;;
5273;SDS011;56254;50.956;7.010;2022-08-07T04:56:58;2.47;;;1.90;;
5273;SDS011;56254;50.956;7.010;2022-08-07T04:59:46;3.77;;;2.40;;
5273;SDS011;56254;50.956;7.010;2022-08-07T05:08:00;3.13;;;2.20;;
5273;SDS011;56254;50.956;7.010;2022-08-07T05:10:30;6.73;;;1.63;;
5273;SDS011;56254;50.956;7.010;2022-08-07T05:15:32;2.50;;;1.73;;
5273;SDS011;56254;50.956;7.010;2022-08-07T05:18:06;2.30;;;2.10;;
5273;SDS011;56254;50.956;7.010;2022-08-07T05:20:42;8.13;;;2.50;;
5273;SDS011;56254;50.956;7.010;2022-08-07T05:23:20;3.80;;;2.23;;
5273;SDS011;56254;50.956;7.010;2022-08-07T05:25:54;2.87;;;2.20;;
5273;SDS011;56254;50.956;7.010;2022-08-07T05:28:21;4.70;;;2.70;;
5273;SDS011;56254;50.956;7.010;2022-08-07T05:30:54;2.47;;;2.27;;
5273;SDS011;56254;50.956;7.010;2022-08-07T05:33:22;9.30;;;2.10;;
5273;SDS011;56254;50.956;7.010;2022-08-07T05:35:48;3.23;;;2.30;;
5273;SDS011;56254;50.956;7.010;2022-08-07T05:38:16;3.67;;;2.10;;
5273;SDS011;56254;50.956;7.010;2022-08-07T05:40:46;3.00;;;2.00;;
5273;SDS011;56254;50.956;7.010;2022-08-07T05:43:12;9.13;;;2.07;;
5273;SDS011;56254;50.956;7.010;2022-08-07T05:45:39;2.20;;;2.00;;
5273;SDS011;56254;50.956;7.010;2022-08-07T05:48:07;2.60;;;2.40;;
5273;SDS011;56254;50.956;7.010;2022-08-07T05:50:33;4.27;;;2.80;;
5273;SDS011;56254;50.956;7.010;2022-08-07T05:53:03;4.90;;;2.93;;
5273;SDS011;56254;50.956;7.010;2022-08-07T05:55:35;2.73;;;2.20;;
5273;SDS011;56254;50.956;7.010;2022-08-07T05:58:02;1.60;;;1.50;;
5273;SDS011;56254;50.956;7.010;2022-08-07T06:00:29;3.73;;;2.10;;
5273;SDS011;56254;50.956;7.010;2022-08-07T06:02:58;3.03;;;2.10;;
5273;SDS011;56254;50.956;7.010;2022-08-07T06:05:25;4.27;;;2.30;;
5273;SDS011;56254;50.956;7.010;2022-08-07T06:07:53;6.00;;;2.20;;
5273;SDS011;56254;50.956;7.010;2022-08-07T06:10:23;10.53;;;2.07;;
5273;SDS011;56254;50.956;7.010;2022-08-07T06:12:50;6.53;;;1.67;;
5273;SDS011;56254;50.956;7.010;2022-08-07T06:15:16;2.60;;;2.20;;
5273;SDS011;56254;50.956;7.010;2022-08-07T06:17:43;6.20;;;1.90;;
5273;SDS011;56254;50.956;7.010;2022-08-07T06:20:10;5.33;;;2.30;;
5273;SDS011;56254;50.956;7.010;2022-08-07T06:22:36;3.13;;;2.37;;
5273;SDS011;56254;50.956;7.010;2022-08-07T06:25:05;2.20;;;1.40;;
5273;SDS011;56254;50.956;7.010;2022-08-07T06:27:31;1.73;;;1.63;;
5273;SDS011;56254;50.956;7.010;2022-08-07T06:29:57;2.17;;;1.97;;
5273;SDS011;56254;50.956;7.010;2022-08-07T06:32:24;3.20;;;1.83;;
5273;SDS011;56254;50.956;7.010;2022-08-07T06:34:50;1.70;;;1.53;;
5273;SDS011;56254;50.956;7.010;2022-08-07T06:37:17;2.57;;;1.50;;
5273;SDS011;56254;50.956;7.010;2022-08-07T06:39:43;1.73;;;1.60;;
5273;SDS011;56254;50.956;7.010;2022-08-07T06:42:25;8.00;;;2.47;;
5273;SDS011;56254;50.956;7.010;2022-08-07T06:44:55;1.50;;;1.40;;
5273;SDS011;56254;50.956;7.010;2022-08-07T06:47:22;2.40;;;1.30;;
5273;SDS011;56254;50.956;7.010;2022-08-07T06:49:49;4.37;;;2.07;;
5273;SDS011;56254;50.956;7.010;2022-08-07T06:52:21;3.03;;;1.43;;
5273;SDS011;56254;50.956;7.010;2022-08-07T06:54:57;1.23;;;1.23;;
5273;SDS011;56254;50.956;7.010;2022-08-07T06:57:27;5.93;;;1.40;;
5273;SDS011;56254;50.956;7.010;2022-08-07T07:00:02;1.50;;;1.40;;
5273;SDS011;56254;50.956;7.010;2022-08-07T07:02:28;1.53;;;1.30;;
5273;SDS011;56254;50.956;7.010;2022-08-07T07:04:56;1.27;;;1.20;;
5273;SDS011;56254;50.956;7.010;2022-08-07T07:07:23;2.00;;;1.30;;
5273;SDS011;56254;50.956;7.010;2022-08-07T07:09:49;1.67;;;1.13;;
5273;SDS011;56254;50.956;7.010;2022-08-07T07:14:55;1.17;;;1.13;;
5273;SDS011;56254;50.956;7.010;2022-08-07T07:17:42;3.30;;;1.13;;
5273;SDS011;56254;50.956;7.010;2022-08-07T07:20:32;1.43;;;1.33;;
5273;SDS011;56254;50.956;7.010;2022-08-07T07:23:04;1.83;;;1.57;;
5273;SDS011;56254;50.956;7.010;2022-08-07T07:25:31;1.10;;;1.10;;
5273;SDS011;56254;50.956;7.010;2022-08-07T07:41:03;1.67;;;1.10;;
5273;SDS011;56254;50.956;7.010;2022-08-07T07:43:32;1.03;;;1.00;;
5273;SDS011;56254;50.956;7.010;2022-08-07T07:46:00;0.90;;;0.90;;
5273;SDS011;56254;50.956;7.010;2022-08-07T07:48:28;1.90;;;0.90;;
5273;SDS011;56254;50.956;7.010;2022-08-07T07:50:55;0.80;;;0.80;;
5273;SDS011;56254;50.956;7.010;2022-08-07T07:53:25;2.70;;;1.30;;
5273;SDS011;56254;50.956;7.010;2022-08-07T07:55:54;1.63;;;0.90;;
5273;SDS011;56254;50.956;7.010;2022-08-07T07:58:23;1.60;;;1.07;;
5273;SDS011;56254;50.956;7.010;2022-08-07T08:00:53;1.53;;;1.43;;
5273;SDS011;56254;50.956;7.010;2022-08-07T08:03:20;1.00;;;1.00;;
5273;SDS011;56254;50.956;7.010;2022-08-07T08:05:48;1.13;;;1.03;;
5273;SDS011;56254;50.956;7.010;2022-08-07T08:08:16;1.93;;;1.10;;
5273;SDS011;56254;50.956;7.010;2022-08-07T08:10:44;3.33;;;1.37;;
5273;SDS011;56254;50.956;7.010;2022-08-07T08:13:11;1.10;;;1.00;;
5273;SDS011;56254;50.956;7.010;2022-08-07T08:15:41;1.43;;;1.00;;
5273;SDS011;56254;50.956;7.010;2022-08-07T08:18:10;2.03;;;0.97;;
5273;SDS011;56254;50.956;7.010;2022-08-07T08:20:37;1.70;;;0.93;;
5273;SDS011;56254;50.956;7.010;2022-08-07T08:23:04;3.33;;;1.57;;
5273;SDS011;56254;50.956;7.010;2022-08-07T08:25:53;1.40;;;1.20;;
5273;SDS011;56254;50.956;7.010;2022-08-07T08:28:41;1.30;;;1.20;;
5273;SDS011;56254;50.956;7.010;2022-08-07T08:31:08;2.63;;;1.37;;
5273;SDS011;56254;50.956;7.010;2022-08-07T08:33:37;1.23;;;0.90;;
5273;SDS011;56254;50.956;7.010;2022-08-07T08:36:05;1.13;;;1.00;;
5273;SDS011;56254;50.956;7.010;2022-08-07T08:38:38;1.30;;;1.00;;
5273;SDS011;56254;50.956;7.010;2022-08-07T08:41:13;1.73;;;0.80;;
5273;SDS011;56254;50.956;7.010;2022-08-07T08:46:23;3.67;;;1.83;;
5273;SDS011;56254;50.956;7.010;2022-08-07T08:52:24;1.37;;;0.87;;
5273;SDS011;56254;50.956;7.010;2022-08-07T08:55:05;1.60;;;1.00;;
5273;SDS011;56254;50.956;7.010;2022-08-07T08:57:39;4.10;;;0.90;;
5273;SDS011;56254;50.956;7.010;2022-08-07T09:00:11;1.10;;;1.10;;
5273;SDS011;56254;50.956;7.010;2022-08-07T09:05:52;3.80;;;1.60;;
5273;SDS011;56254;50.956;7.010;2022-08-07T09:08:24;1.23;;;1.13;;
5273;SDS011;56254;50.956;7.010;2022-08-07T09:13:40;1.73;;;1.27;;
5273;SDS011;56254;50.956;7.010;2022-08-07T09:22:01;2.53;;;1.10;;
5273;SDS011;56254;50.956;7.010;2022-08-07T09:25:05;2.17;;;0.83;;
5273;SDS011;56254;50.956;7.010;2022-08-07T09:28:07;1.30;;;1.20;;
5273;SDS011;56254;50.956;7.010;2022-08-07T09:42:20;2.50;;;0.90;;
5273;SDS011;56254;50.956;7.010;2022-08-07T09:48:05;0.70;;;0.70;;
5273;SDS011;56254;50.956;7.010;2022-08-07T09:50:43;0.87;;;0.80;;
5273;SDS011;56254;50.956;7.010;2022-08-07T09:53:18;4.50;;;0.80;;
5273;SDS011;56254;50.956;7.010;2022-08-07T10:13:09;2.33;;;0.70;;
5273;SDS011;56254;50.956;7.010;2022-08-07T10:16:03;8.70;;;0.90;;
5273;SDS011;56254;50.956;7.010;2022-08-07T10:30:04;1.20;;;0.70;;
5273;SDS011;56254;50.956;7.010;2022-08-07T10:40:58;1.13;;;0.77;;
5273;SDS011;56254;50.956;7.010;2022-08-07T10:43:33;1.60;;;1.00;;
5273;SDS011;56254;50.956;7.010;2022-08-07T10:46:17;1.97;;;0.80;;
5273;SDS011;56254;50.956;7.010;2022-08-07T10:48:49;0.80;;;0.80;;
5273;SDS011;56254;50.956;7.010;2022-08-07T10:54:24;0.70;;;0.70;;
5273;SDS011;56254;50.956;7.010;2022-08-07T11:02:27;0.70;;;0.70;;
5273;SDS011;56254;50.956;7.010;2022-08-07T11:14:23;3.70;;;1.10;;
5273;SDS011;56254;50.956;7.010;2022-08-07T11:17:10;1.60;;;1.00;;
5273;SDS011;56254;50.956;7.010;2022-08-07T11:33:36;0.70;;;0.70;;
5273;SDS011;56254;50.956;7.010;2022-08-07T11:39:37;1.00;;;0.90;;
5273;SDS011;56254;50.956;7.010;2022-08-07T11:54:07;1.77;;;1.10;;
5273;SDS011;56254;50.956;7.010;2022-08-07T11:59:26;1.50;;;1.03;;
5273;SDS011;56254;50.956;7.010;2022-08-07T12:04:52;1.00;;;0.90;;
5273;SDS011;56254;50.956;7.010;2022-08-07T12:10:24;1.73;;;0.93;;
5273;SDS011;56254;50.956;7.010;2022-08-07T12:13:02;6.53;;;1.00;;
5273;SDS011;56254;50.956;7.010;2022-08-07T12:15:33;1.53;;;0.70;;
5273;SDS011;56254;50.956;7.010;2022-08-07T12:18:23;1.70;;;0.93;;
5273;SDS011;56254;50.956;7.010;2022-08-07T12:26:30;1.00;;;0.90;;
5273;SDS011;56254;50.956;7.010;2022-08-07T12:29:10;0.80;;;0.80;;
5273;SDS011;56254;50.956;7.010;2022-08-07T12:34:46;1.30;;;1.10;;
5273;SDS011;56254;50.956;7.010;2022-08-07T12:37:15;5.00;;;0.80;;
5273;SDS011;56254;50.956;7.010;2022-08-07T12:39:43;4.27;;;2.40;;
5273;SDS011;56254;50.956;7.010;2022-08-07T12:42:14;0.80;;;0.80;;
5273;SDS011;56254;50.956;7.010;2022-08-07T12:44:45;2.77;;;1.00;;
5273;SDS011;56254;50.956;7.010;2022-08-07T12:52:37;2.20;;;1.00;;
5273;SDS011;56254;50.956;7.010;2022-08-07T12:57:57;1.90;;;1.00;;
5273;SDS011;56254;50.956;7.010;2022-08-07T13:00:30;0.97;;;0.80;;
5273;SDS011;56254;50.956;7.010;2022-08-07T13:03:30;1.00;;;0.87;;
5273;SDS011;56254;50.956;7.010;2022-08-07T13:11:40;1.07;;;0.97;;
5273;SDS011;56254;50.956;7.010;2022-08-07T13:22:35;1.60;;;1.50;;
5273;SDS011;56254;50.956;7.010;2022-08-07T13:25:08;1.17;;;0.80;;
5273;SDS011;56254;50.956;7.010;2022-08-07T13:27:37;4.83;;;0.97;;
5273;SDS011;56254;50.956;7.010;2022-08-07T13:30:09;0.87;;;0.73;;
5273;SDS011;56254;50.956;7.010;2022-08-07T13:32:49;1.10;;;1.00;;
5273;SDS011;56254;50.956;7.010;2022-08-07T13:35:35;1.87;;;0.80;;
5273;SDS011;56254;50.956;7.010;2022-08-07T13:41:47;2.43;;;1.20;;
5273;SDS011;56254;50.956;7.010;2022-08-07T13:44:24;2.00;;;1.10;;
5273;SDS011;56254;50.956;7.010;2022-08-07T13:46:55;4.33;;;1.10;;
5273;SDS011;56254;50.956;7.010;2022-08-07T13:49:23;13.27;;;1.57;;
5273;SDS011;56254;50.956;7.010;2022-08-07T13:51:51;2.00;;;0.80;;
5273;SDS011;56254;50.956;7.010;2022-08-07T13:54:19;1.27;;;1.00;;
5273;SDS011;56254;50.956;7.010;2022-08-07T13:56:54;0.70;;;0.70;;
5273;SDS011;56254;50.956;7.010;2022-08-07T13:59:29;2.00;;;0.83;;
5273;SDS011;56254;50.956;7.010;2022-08-07T14:04:36;1.00;;;1.00;;
5273;SDS011;56254;50.956;7.010;2022-08-07T14:07:18;2.33;;;0.80;;
5273;SDS011;56254;50.956;7.010;2022-08-07T14:09:46;1.20;;;1.10;;
5273;SDS011;56254;50.956;7.010;2022-08-07T14:12:22;3.00;;;2.07;;
5273;SDS011;56254;50.956;7.010;2022-08-07T14:14:53;1.30;;;1.20;;
5273;SDS011;56254;50.956;7.010;2022-08-07T14:17:25;0.93;;;0.93;;
5273;SDS011;56254;50.956;7.010;2022-08-07T14:19:57;1.10;;;1.00;;
5273;SDS011;56254;50.956;7.010;2022-08-07T14:22:30;1.87;;;1.10;;
5273;SDS011;56254;50.956;7.010;2022-08-07T14:25:06;0.93;;;0.93;;
5273;SDS011;56254;50.956;7.010;2022-08-07T14:27:37;3.53;;;2.27;;
5273;SDS011;56254;50.956;7.010;2022-08-07T14:30:24;2.37;;;1.30;;
5273;SDS011;56254;50.956;7.010;2022-08-07T14:32:54;1.17;;;0.80;;
5273;SDS011;56254;50.956;7.010;2022-08-07T14:35:26;3.23;;;0.80;;
5273;SDS011;56254;50.956;7.010;2022-08-07T14:37:56;0.80;;;0.80;;
5273;SDS011;56254;50.956;7.010;2022-08-07T14:40:24;0.90;;;0.80;;
5273;SDS011;56254;50.956;7.010;2022-08-07T14:43:12;1.50;;;1.30;;
5273;SDS011;56254;50.956;7.010;2022-08-07T14:45:41;1.73;;;1.63;;
5273;SDS011;56254;50.956;7.010;2022-08-07T14:48:10;1.00;;;0.90;;
5273;SDS011;56254;50.956;7.010;2022-08-07T14:50:41;1.23;;;0.80;;
5273;SDS011;56254;50.956;7.010;2022-08-07T14:53:15;0.70;;;0.70;;
5273;SDS011;56254;50.956;7.010;2022-08-07T14:55:44;1.63;;;1.20;;
5273;SDS011;56254;50.956;7.010;2022-08-07T14:58:12;3.20;;;1.40;;
5273;SDS011;56254;50.956;7.010;2022-08-07T15:00:41;5.60;;;1.00;;
5273;SDS011;56254;50.956;7.010;2022-08-07T15:03:15;1.70;;;1.60;;
5273;SDS011;56254;50.956;7.010;2022-08-07T15:05:49;1.30;;;1.20;;
5273;SDS011;56254;50.956;7.010;2022-08-07T15:08:20;4.33;;;3.03;;
5273;SDS011;56254;50.956;7.010;2022-08-07T15:10:59;3.80;;;2.90;;
5273;SDS011;56254;50.956;7.010;2022-08-07T15:13:34;2.20;;;1.50;;
5273;SDS011;56254;50.956;7.010;2022-08-07T15:16:15;2.70;;;0.83;;
5273;SDS011;56254;50.956;7.010;2022-08-07T15:18:50;2.40;;;0.73;;
5273;SDS011;56254;50.956;7.010;2022-08-07T15:21:25;1.43;;;0.73;;
5273;SDS011;56254;50.956;7.010;2022-08-07T15:23:56;0.60;;;0.60;;
5273;SDS011;56254;50.956;7.010;2022-08-07T15:26:34;2.20;;;1.30;;
5273;SDS011;56254;50.956;7.010;2022-08-07T15:29:07;1.30;;;1.20;;
5273;SDS011;56254;50.956;7.010;2022-08-07T15:31:37;9.50;;;5.23;;
5273;SDS011;56254;50.956;7.010;2022-08-07T15:34:06;9.07;;;3.67;;
5273;SDS011;56254;50.956;7.010;2022-08-07T15:36:34;3.93;;;2.80;;
5273;SDS011;56254;50.956;7.010;2022-08-07T15:39:04;3.57;;;2.67;;
5273;SDS011;56254;50.956;7.010;2022-08-07T15:41:38;1.40;;;1.27;;
5273;SDS011;56254;50.956;7.010;2022-08-07T15:44:26;3.03;;;1.13;;
5273;SDS011;56254;50.956;7.010;2022-08-07T15:47:06;1.00;;;0.93;;
5273;SDS011;56254;50.956;7.010;2022-08-07T15:49:34;2.60;;;1.17;;
5273;SDS011;56254;50.956;7.010;2022-08-07T15:52:03;1.63;;;1.53;;
5273;SDS011;56254;50.956;7.010;2022-08-07T15:54:36;1.67;;;1.40;;
5273;SDS011;56254;50.956;7.010;2022-08-07T15:57:05;2.90;;;2.23;;
5273;SDS011;56254;50.956;7.010;2022-08-07T15:59:34;3.80;;;2.73;;
5273;SDS011;56254;50.956;7.010;2022-08-07T16:02:07;4.40;;;1.83;;
5273;SDS011;56254;50.956;7.010;2022-08-07T16:04:35;3.83;;;2.17;;
5273;SDS011;56254;50.956;7.010;2022-08-07T16:07:03;3.60;;;1.67;;
5273;SDS011;56254;50.956;7.010;2022-08-07T16:09:35;1.13;;;1.13;;
5273;SDS011;56254;50.956;7.010;2022-08-07T16:15:09;7.67;;;3.53;;
5273;SDS011;56254;50.956;7.010;2022-08-07T16:28:16;1.30;;;1.30;;
5273;SDS011;56254;50.956;7.010;2022-08-07T16:33:51;6.63;;;2.07;;
5273;SDS011;56254;50.956;7.010;2022-08-07T16:55:25;5.23;;;3.60;;
5273;SDS011;56254;50.956;7.010;2022-08-07T16:58:19;2.80;;;2.50;;
5273;SDS011;56254;50.956;7.010;2022-08-07T17:00:59;4.20;;;1.80;;
5273;SDS011;56254;50.956;7.010;2022-08-07T17:15:15;8.23;;;4.50;;
5273;SDS011;56254;50.956;7.010;2022-08-07T17:17:59;3.40;;;2.47;;
5273;SDS011;56254;50.956;7.010;2022-08-07T17:20:37;2.27;;;1.90;;
5273;SDS011;56254;50.956;7.010;2022-08-07T17:28:30;6.27;;;3.37;;
5273;SDS011;56254;50.956;7.010;2022-08-07T17:31:20;4.63;;;2.53;;
5273;SDS011;56254;50.956;7.010;2022-08-07T17:34:11;5.73;;;4.17;;
5273;SDS011;56254;50.956;7.010;2022-08-07T17:36:50;14.17;;;6.67;;
5273;SDS011;56254;50.956;7.010;2022-08-07T17:39:23;3.70;;;3.13;;
5273;SDS011;56254;50.956;7.010;2022-08-07T17:42:25;4.70;;;3.20;;
5273;SDS011;56254;50.956;7.010;2022-08-07T17:44:55;6.83;;;4.23;;
5273;SDS011;56254;50.956;7.010;2022-08-07T17:53:24;3.90;;;2.40;;
5273;SDS011;56254;50.956;7.010;2022-08-07T17:55:58;5.37;;;2.80;;
5273;SDS011;56254;50.956;7.010;2022-08-07T18:01:55;2.20;;;1.17;;
5273;SDS011;56254;50.956;7.010;2022-08-07T18:09:57;0.87;;;0.87;;
5273;SDS011;56254;50.956;7.010;2022-08-07T18:15:34;0.90;;;0.90;;
5273;SDS011;56254;50.956;7.010;2022-08-07T18:18:07;4.17;;;1.10;;
5273;SDS011;56254;50.956;7.010;2022-08-07T18:20:37;1.90;;;1.00;;
5273;SDS011;56254;50.956;7.010;2022-08-07T18:23:10;5.93;;;3.13;;
5273;SDS011;56254;50.956;7.010;2022-08-07T18:25:48;7.80;;;1.70;;
5273;SDS011;56254;50.956;7.010;2022-08-07T18:28:29;6.53;;;2.90;;
5273;SDS011;56254;50.956;7.010;2022-08-07T18:45:07;16.37;;;9.60;;
5273;SDS011;56254;50.956;7.010;2022-08-07T18:47:54;5.00;;;3.00;;
5273;SDS011;56254;50.956;7.010;2022-08-07T18:53:02;3.57;;;1.30;;
5273;SDS011;56254;50.956;7.010;2022-08-07T19:04:25;2.67;;;1.73;;
5273;SDS011;56254;50.956;7.010;2022-08-07T19:20:29;5.17;;;3.27;;
5273;SDS011;56254;50.956;7.010;2022-08-07T19:23:12;2.90;;;2.60;;
5273;SDS011;56254;50.956;7.010;2022-08-07T19:26:08;8.17;;;4.37;;
5273;SDS011;56254;50.956;7.010;2022-08-07T19:28:36;7.03;;;3.07;;
5273;SDS011;56254;50.956;7.010;2022-08-07T19:31:20;5.40;;;2.70;;
5273;SDS011;56254;50.956;7.010;2022-08-07T19:33:56;7.47;;;5.60;;
5273;SDS011;56254;50.956;7.010;2022-08-07T19:36:25;11.53;;;4.60;;
5273;SDS011;56254;50.956;7.010;2022-08-07T19:38:59;8.70;;;5.57;;
5273;SDS011;56254;50.956;7.010;2022-08-07T19:41:29;15.70;;;5.97;;
5273;SDS011;56254;50.956;7.010;2022-08-07T19:44:15;13.00;;;6.80;;
5273;SDS011;56254;50.956;7.010;2022-08-07T19:46:51;7.17;;;4.47;;
5273;SDS011;56254;50.956;7.010;2022-08-07T19:49:25;8.77;;;4.10;;
5273;SDS011;56254;50.956;7.010;2022-08-07T19:51:55;9.33;;;5.47;;
5273;SDS011;56254;50.956;7.010;2022-08-07T19:54:24;19.00;;;8.80;;
5273;SDS011;56254;50.956;7.010;2022-08-07T19:56:58;12.00;;;6.23;;
5273;SDS011;56254;50.956;7.010;2022-08-07T19:59:27;18.83;;;10.03;;
5273;SDS011;56254;50.956;7.010;2022-08-07T20:02:00;12.10;;;6.17;;
5273;SDS011;56254;50.956;7.010;2022-08-07T20:04:30;9.07;;;5.90;;
5273;SDS011;56254;50.956;7.010;2022-08-07T20:07:00;16.40;;;6.83;;
5273;SDS011;56254;50.956;7.010;2022-08-07T20:09:27;5.67;;;4.07;;
5273;SDS011;56254;50.956;7.010;2022-08-07T20:11:55;11.00;;;4.17;;
5273;SDS011;56254;50.956;7.010;2022-08-07T20:14:29;6.30;;;3.90;;
5273;SDS011;56254;50.956;7.010;2022-08-07T20:16:59;4.23;;;2.97;;
5273;SDS011;56254;50.956;7.010;2022-08-07T20:19:28;7.10;;;4.10;;
5273;SDS011;56254;50.956;7.010;2022-08-07T20:21:56;7.40;;;4.50;;
5273;SDS011;56254;50.956;7.010;2022-08-07T20:24:50;7.70;;;5.00;;